createdAt,value
2018-05-31T00:00:05.636Z,22.80
2018-05-31T00:02:38.822Z,24.25
2018-05-31T00:05:11.595Z,24.27
2018-05-31T00:07:45.002Z,23.70
2018-05-31T00:10:18.375Z,22.45
2018-05-31T00:12:51.730Z,22.23
2018-05-31T00:15:24.145Z,21.92
2018-05-31T00:17:56.774Z,21.85
2018-05-31T00:20:29.204Z,22.77
2018-05-31T00:23:01.598Z,22.10
2018-05-31T00:25:34.092Z,22.13
2018-05-31T00:28:07.112Z,23.45
2018-05-31T00:30:46.719Z,22.52
2018-05-31T00:33:20.144Z,23.17
2018-05-31T00:35:52.583Z,21.77
2018-05-31T00:38:25.173Z,22.20
2018-05-31T00:40:57.739Z,22.85
2018-05-31T00:43:30.239Z,21.90
2018-05-31T00:46:02.873Z,22.08
2018-05-31T00:48:35.303Z,22.92
2018-05-31T00:51:09.181Z,25.08
2018-05-31T00:53:41.620Z,22.10
2018-05-31T00:56:16.289Z,22.25
2018-05-31T00:58:49.522Z,23.08
2018-05-31T01:01:22.727Z,23.35
2018-05-31T01:03:55.343Z,22.27
2018-05-31T01:06:27.764Z,22.15
2018-05-31T01:09:00.400Z,23.02
2018-05-31T01:11:32.803Z,22.92
2018-05-31T01:14:05.418Z,22.85
2018-05-31T01:16:37.962Z,22.95
2018-05-31T01:19:10.334Z,22.15
2018-05-31T01:21:42.733Z,22.17
2018-05-31T01:24:15.513Z,23.02
2018-05-31T01:26:48.020Z,24.77
2018-05-31T01:29:21.348Z,24.60
2018-05-31T01:31:54.012Z,25.20
2018-05-31T01:34:26.573Z,24.52
2018-05-31T01:36:59.169Z,25.65
2018-05-31T01:39:31.763Z,24.80
2018-05-31T01:42:04.269Z,24.95
2018-05-31T01:44:37.390Z,25.67
2018-05-31T01:47:10.258Z,25.90
2018-05-31T01:49:42.804Z,23.92
2018-05-31T01:52:15.622Z,23.90
2018-05-31T01:54:48.020Z,24.08
2018-05-31T01:57:20.561Z,24.25
2018-05-31T01:59:53.324Z,23.27
2018-05-31T02:02:25.842Z,24.17
2018-05-31T02:04:59.125Z,22.17
2018-05-31T02:07:31.544Z,23.90
2018-05-31T02:10:04.040Z,23.85
2018-05-31T02:12:36.722Z,22.13
2018-05-31T02:15:09.391Z,22.35
2018-05-31T02:17:42.013Z,22.27
2018-05-31T02:20:15.344Z,22.62
2018-05-31T02:22:47.664Z,22.40
2018-05-31T02:25:20.916Z,24.15
2018-05-31T02:27:53.458Z,22.80
2018-05-31T02:30:26.643Z,22.50
2018-05-31T02:32:59.174Z,21.37
2018-05-31T02:35:31.838Z,22.58
2018-05-31T02:38:04.968Z,23.00
2018-05-31T02:40:37.338Z,23.45
2018-05-31T02:43:09.763Z,25.02
2018-05-31T02:45:43.144Z,22.40
2018-05-31T02:48:16.343Z,23.40
2018-05-31T02:50:49.078Z,22.98
2018-05-31T02:53:21.787Z,23.48
2018-05-31T02:55:54.318Z,23.30
2018-05-31T02:58:26.702Z,22.60
2018-05-31T03:00:59.162Z,21.62
2018-05-31T03:03:39.029Z,23.87
2018-05-31T03:06:11.633Z,22.08
2018-05-31T03:08:44.929Z,21.15
2018-05-31T03:11:17.360Z,21.05
2018-05-31T03:13:50.006Z,22.85
2018-05-31T03:16:22.558Z,21.60
2018-05-31T03:18:55.808Z,22.80
2018-05-31T03:21:28.262Z,22.90
2018-05-31T03:24:00.754Z,23.48
2018-05-31T03:26:33.430Z,22.77
2018-05-31T03:29:06.690Z,23.38
2018-05-31T03:31:39.154Z,23.80
2018-05-31T03:34:11.805Z,24.27
2018-05-31T03:36:44.286Z,21.35
2018-05-31T03:39:16.819Z,21.00
2018-05-31T03:41:49.405Z,21.52
2018-05-31T03:44:22.055Z,20.85
2018-05-31T03:46:54.541Z,21.42
2018-05-31T03:49:26.878Z,21.12
2018-05-31T03:51:59.615Z,21.40
2018-05-31T03:54:32.291Z,21.80
2018-05-31T03:57:04.929Z,22.37
2018-05-31T03:59:38.076Z,21.77
2018-05-31T04:02:11.274Z,22.55
2018-05-31T04:04:43.599Z,21.30
2018-05-31T04:07:16.139Z,21.83
2018-05-31T04:09:49.488Z,21.92
2018-05-31T04:12:22.125Z,21.65
2018-05-31T04:14:54.619Z,22.83
2018-05-31T04:17:28.141Z,23.23
2018-05-31T04:20:00.822Z,21.73
2018-05-31T04:22:34.153Z,22.08
2018-05-31T04:25:06.608Z,22.25
2018-05-31T04:27:39.080Z,22.45
2018-05-31T04:30:11.548Z,22.62
2018-05-31T04:32:44.168Z,21.37
2018-05-31T04:35:16.569Z,21.12
2018-05-31T04:37:49.736Z,21.65
2018-05-31T04:40:22.298Z,21.10
2018-05-31T04:42:54.825Z,21.45
2018-05-31T04:45:27.455Z,20.90
2018-05-31T04:48:00.627Z,22.40
2018-05-31T04:50:33.058Z,22.35
2018-05-31T04:53:05.420Z,21.50
2018-05-31T04:55:37.797Z,20.37
2018-05-31T04:58:11.114Z,20.92
2018-05-31T05:00:45.408Z,20.62
2018-05-31T05:03:17.928Z,20.23
2018-05-31T05:05:50.523Z,20.48
2018-05-31T05:08:24.268Z,19.23
2018-05-31T05:10:56.663Z,19.55
2018-05-31T05:13:29.112Z,19.05
2018-05-31T05:16:01.486Z,19.00
2018-05-31T05:18:34.753Z,18.33
2018-05-31T05:21:08.254Z,18.80
2018-05-31T05:23:40.919Z,18.67
2018-05-31T05:26:13.341Z,18.62
2018-05-31T05:28:45.802Z,19.80
2018-05-31T05:31:18.497Z,17.98
2018-05-31T05:33:50.844Z,17.92
2018-05-31T05:36:24.724Z,17.30
2018-05-31T05:38:57.244Z,17.85
2018-05-31T05:41:29.660Z,18.33
2018-05-31T05:44:02.405Z,17.80
2018-05-31T05:46:35.808Z,17.52
2018-05-31T05:49:08.498Z,18.42
2018-05-31T05:51:41.003Z,19.10
2018-05-31T05:54:13.440Z,20.00
2018-05-31T05:56:45.920Z,19.33
2018-05-31T05:59:18.279Z,17.77
2018-05-31T06:01:50.904Z,18.67
2018-05-31T06:04:24.539Z,18.58
2018-05-31T06:06:57.146Z,18.55
2018-05-31T06:09:30.539Z,18.40
2018-05-31T06:12:04.172Z,18.45
2018-05-31T06:14:37.431Z,18.48
2018-05-31T06:17:15.164Z,17.25
2018-05-31T06:19:47.678Z,17.92
2018-05-31T06:22:20.973Z,17.77
2018-05-31T06:24:53.577Z,17.48
2018-05-31T06:27:26.790Z,17.65
2018-05-31T06:29:59.290Z,17.62
2018-05-31T06:32:31.889Z,17.58
2018-05-31T06:35:04.652Z,17.98
2018-05-31T06:37:37.916Z,17.52
2018-05-31T06:40:10.454Z,17.58
2018-05-31T06:42:43.446Z,17.85
2018-05-31T06:45:16.140Z,17.23
2018-05-31T06:47:48.825Z,16.08
2018-05-31T06:50:22.474Z,15.93
2018-05-31T06:52:55.070Z,17.05
2018-05-31T06:55:27.568Z,16.05
2018-05-31T06:58:00.869Z,16.80
2018-05-31T07:00:33.444Z,15.90
2018-05-31T07:03:05.915Z,16.80
2018-05-31T07:05:38.310Z,15.63
2018-05-31T07:08:10.782Z,15.57
2018-05-31T07:10:44.154Z,16.20
2018-05-31T07:13:17.596Z,16.62
2018-05-31T07:15:50.258Z,15.68
2018-05-31T07:18:22.831Z,16.08
2018-05-31T07:20:55.484Z,13.80
2018-05-31T07:23:29.424Z,14.60
2018-05-31T07:26:01.900Z,14.30
2018-05-31T07:28:35.274Z,14.52
2018-05-31T07:31:08.717Z,13.35
2018-05-31T07:33:41.311Z,13.52
2018-05-31T07:36:14.039Z,13.80
2018-05-31T07:38:46.737Z,12.52
2018-05-31T07:41:19.215Z,12.93
2018-05-31T07:43:52.095Z,13.00
2018-05-31T07:46:24.783Z,12.40
2018-05-31T07:48:57.438Z,11.68
2018-05-31T07:51:30.141Z,11.60
2018-05-31T07:54:02.911Z,11.88
2018-05-31T07:56:35.488Z,12.77
2018-05-31T07:59:08.614Z,11.82
2018-05-31T08:01:41.980Z,12.82
2018-05-31T08:04:15.144Z,13.07
2018-05-31T08:06:47.638Z,12.23
2018-05-31T08:09:20.433Z,12.73
2018-05-31T08:11:53.786Z,11.88
2018-05-31T08:14:26.279Z,13.15
2018-05-31T08:17:00.171Z,12.70
2018-05-31T08:19:33.556Z,12.00
2018-05-31T08:22:06.044Z,11.88
2018-05-31T08:24:38.746Z,11.43
2018-05-31T08:27:11.190Z,10.63
2018-05-31T08:29:43.901Z,11.07
2018-05-31T08:32:16.621Z,10.93
2018-05-31T08:34:49.176Z,10.95
2018-05-31T08:37:21.749Z,10.75
2018-05-31T08:39:54.410Z,10.18
2018-05-31T08:42:26.896Z,9.55
2018-05-31T08:44:59.402Z,9.50
2018-05-31T08:47:32.010Z,9.32
2018-05-31T08:50:12.484Z,8.63
2018-05-31T08:52:44.936Z,8.77
2018-05-31T08:55:18.137Z,8.68
2018-05-31T08:57:50.635Z,9.10
2018-05-31T09:00:23.449Z,8.10
2018-05-31T09:02:56.021Z,8.45
2018-05-31T09:05:29.522Z,8.93
2018-05-31T09:08:02.040Z,8.77
2018-05-31T09:10:35.491Z,9.20
2018-05-31T09:13:08.114Z,8.30
2018-05-31T09:15:41.405Z,8.63
2018-05-31T09:18:14.038Z,7.90
2018-05-31T09:20:46.719Z,7.95
2018-05-31T09:23:19.255Z,8.10
2018-05-31T09:25:51.734Z,8.27
2018-05-31T09:28:24.441Z,8.93
2018-05-31T09:30:57.161Z,8.05
2018-05-31T09:33:29.735Z,9.95
2018-05-31T09:36:02.404Z,8.43
2018-05-31T09:38:35.060Z,7.93
2018-05-31T09:41:07.441Z,8.55
2018-05-31T09:43:40.254Z,7.47
2018-05-31T09:46:12.739Z,7.30
2018-05-31T09:48:45.164Z,7.90
2018-05-31T09:51:17.746Z,8.32
2018-05-31T09:53:50.989Z,7.30
2018-05-31T09:56:24.468Z,8.02
2018-05-31T09:58:57.184Z,8.38
2018-05-31T10:01:30.344Z,8.32
2018-05-31T10:04:02.849Z,7.80
2018-05-31T10:06:35.611Z,8.48
2018-05-31T10:09:08.250Z,7.03
2018-05-31T10:11:40.894Z,7.47
2018-05-31T10:14:13.619Z,7.18
2018-05-31T10:16:46.315Z,7.10
2018-05-31T10:19:19.064Z,7.60
2018-05-31T10:21:51.629Z,7.12
2018-05-31T10:24:24.227Z,7.40
2018-05-31T10:26:56.840Z,7.68
2018-05-31T10:29:30.027Z,7.35
2018-05-31T10:32:02.472Z,7.18
2018-05-31T10:34:34.927Z,7.50
2018-05-31T10:37:07.591Z,7.62
2018-05-31T10:39:40.284Z,7.40
2018-05-31T10:42:13.559Z,7.15
2018-05-31T10:44:46.245Z,7.20
2018-05-31T10:47:18.996Z,6.80
2018-05-31T10:49:51.744Z,7.07
2018-05-31T10:52:24.410Z,7.68
2018-05-31T10:54:58.339Z,7.70
2018-05-31T10:57:31.740Z,9.40
2018-05-31T11:00:04.515Z,7.78
2018-05-31T11:02:36.946Z,7.20
2018-05-31T11:05:09.545Z,7.50
2018-05-31T11:07:42.151Z,7.22
2018-05-31T11:10:15.556Z,8.93
2018-05-31T11:12:48.961Z,7.90
2018-05-31T11:15:21.622Z,7.70
2018-05-31T11:17:54.288Z,7.65
2018-05-31T11:20:26.920Z,8.00
2018-05-31T11:23:00.194Z,7.78
2018-05-31T11:25:32.981Z,7.93
2018-05-31T11:28:06.412Z,8.23
2018-05-31T11:30:40.211Z,7.65
2018-05-31T11:33:12.962Z,8.25
2018-05-31T11:35:46.342Z,7.60
2018-05-31T11:38:18.978Z,7.75
2018-05-31T11:40:51.494Z,8.45
2018-05-31T11:43:24.149Z,7.53
2018-05-31T11:45:56.777Z,8.63
2018-05-31T11:48:29.411Z,8.13
2018-05-31T11:51:02.260Z,8.00
2018-05-31T11:53:34.771Z,7.72
2018-05-31T11:56:07.486Z,7.75
2018-05-31T11:58:40.196Z,7.50
2018-05-31T12:01:13.002Z,7.68
2018-05-31T12:03:45.595Z,8.18
2018-05-31T12:06:18.302Z,8.23
2018-05-31T12:08:50.940Z,8.13
2018-05-31T12:11:24.318Z,8.57
2018-05-31T12:13:57.461Z,8.25
2018-05-31T12:16:30.120Z,7.82
2018-05-31T12:19:02.771Z,7.80
2018-05-31T12:21:35.510Z,8.13
2018-05-31T12:24:08.164Z,7.85
2018-05-31T12:26:40.831Z,8.82
2018-05-31T12:29:13.313Z,7.87
2018-05-31T12:31:45.881Z,8.45
2018-05-31T12:34:18.545Z,8.70
2018-05-31T12:36:51.970Z,8.68
2018-05-31T12:39:24.479Z,8.45
2018-05-31T12:41:57.856Z,8.18
2018-05-31T12:44:31.337Z,7.97
2018-05-31T12:47:04.765Z,9.07
2018-05-31T12:49:37.366Z,8.02
2018-05-31T12:52:09.836Z,7.97
2018-05-31T12:54:42.725Z,7.97
2018-05-31T12:57:15.242Z,8.23
2018-05-31T12:59:47.866Z,7.95
2018-05-31T13:02:20.492Z,8.20
2018-05-31T13:04:53.821Z,7.80
2018-05-31T13:07:26.221Z,7.85
2018-05-31T13:09:58.617Z,11.55
2018-05-31T13:12:31.111Z,9.90
2018-05-31T13:15:03.860Z,9.13
2018-05-31T13:17:37.227Z,8.10
2018-05-31T13:20:09.964Z,7.22
2018-05-31T13:22:42.766Z,7.00
2018-05-31T13:25:15.973Z,7.57
2018-05-31T13:27:48.486Z,7.10
2018-05-31T13:30:21.206Z,7.00
2018-05-31T13:32:55.224Z,6.57
2018-05-31T13:35:27.775Z,6.78
2018-05-31T13:38:01.348Z,6.80
2018-05-31T13:40:33.880Z,7.10
2018-05-31T13:43:07.112Z,7.18
2018-05-31T13:45:39.723Z,6.90
2018-05-31T13:48:12.129Z,7.62
2018-05-31T13:50:45.884Z,7.40
2018-05-31T13:53:18.539Z,7.03
2018-05-31T13:55:51.165Z,7.40
2018-05-31T13:58:23.738Z,7.57
2018-05-31T14:00:57.006Z,7.10
2018-05-31T14:03:30.266Z,6.95
2018-05-31T14:06:02.874Z,7.62
2018-05-31T14:08:35.505Z,7.65
2018-05-31T14:11:09.036Z,7.62
2018-05-31T14:13:41.727Z,6.72
2018-05-31T14:16:14.250Z,7.25
2018-05-31T14:18:47.510Z,6.57
2018-05-31T14:21:20.175Z,7.90
2018-05-31T14:23:52.650Z,6.90
2018-05-31T14:26:25.316Z,6.53
2018-05-31T14:28:58.063Z,6.45
2018-05-31T14:31:30.661Z,6.80
2018-05-31T14:34:03.999Z,7.47
2018-05-31T14:36:36.576Z,7.35
2018-05-31T14:39:09.207Z,6.62
2018-05-31T14:41:41.886Z,7.03
2018-05-31T14:44:14.879Z,7.05
2018-05-31T14:46:48.121Z,7.28
2018-05-31T14:49:21.504Z,7.68
2018-05-31T14:51:54.931Z,7.75
2018-05-31T14:54:27.700Z,7.65
2018-05-31T14:57:00.266Z,7.95
2018-05-31T14:59:33.201Z,8.80
2018-05-31T15:02:05.655Z,8.73
2018-05-31T15:04:38.146Z,8.40
2018-05-31T15:07:11.861Z,8.00
2018-05-31T15:09:45.142Z,8.50
2018-05-31T15:12:18.371Z,7.62
2018-05-31T15:14:51.257Z,7.85
2018-05-31T15:17:23.838Z,7.62
2018-05-31T15:19:56.561Z,7.70
2018-05-31T15:22:29.113Z,7.15
2018-05-31T15:25:01.844Z,7.37
2018-05-31T15:27:34.617Z,7.22
2018-05-31T15:30:08.132Z,7.12
2018-05-31T15:32:40.733Z,7.30
2018-05-31T15:35:13.527Z,7.15
2018-05-31T15:37:46.196Z,7.05
2018-05-31T15:40:18.681Z,7.50
2018-05-31T15:42:54.587Z,7.22
2018-05-31T15:45:27.264Z,7.30
2018-05-31T15:48:00.431Z,7.20
2018-05-31T15:50:32.981Z,7.10
2018-05-31T15:53:05.541Z,6.90
2018-05-31T15:55:38.857Z,6.97
2018-05-31T15:58:11.437Z,6.78
2018-05-31T16:00:44.138Z,6.95
2018-05-31T16:03:16.663Z,7.30
2018-05-31T16:05:49.662Z,7.40
2018-05-31T16:08:22.242Z,8.30
2018-05-31T16:10:55.063Z,7.93
2018-05-31T16:13:27.552Z,8.18
2018-05-31T16:16:00.272Z,8.27
2018-05-31T16:18:33.011Z,9.00
2018-05-31T16:21:05.570Z,7.95
2018-05-31T16:23:38.230Z,8.55
2018-05-31T16:26:11.076Z,8.85
2018-05-31T16:28:44.447Z,7.68
2018-05-31T16:31:17.042Z,7.65
2018-05-31T16:33:49.786Z,7.90
2018-05-31T16:36:22.379Z,8.35
2018-05-31T16:38:56.633Z,8.27
2018-05-31T16:41:29.222Z,9.05
2018-05-31T16:44:01.926Z,8.60
2018-05-31T16:46:34.516Z,8.65
2018-05-31T16:49:07.116Z,9.10
2018-05-31T16:51:39.881Z,8.73
2018-05-31T16:54:12.602Z,8.25
2018-05-31T16:56:45.260Z,8.70
2018-05-31T16:59:18.067Z,9.20
2018-05-31T17:01:50.681Z,8.52
2018-05-31T17:04:23.224Z,8.90
2018-05-31T17:06:55.923Z,8.57
2018-05-31T17:09:28.535Z,9.02
2018-05-31T17:12:01.248Z,8.35
2018-05-31T17:14:33.891Z,9.27
2018-05-31T17:17:06.529Z,10.15
2018-05-31T17:19:39.216Z,9.20
2018-05-31T17:22:11.895Z,9.73
2018-05-31T17:24:44.612Z,10.57
2018-05-31T17:27:17.354Z,9.50
2018-05-31T17:29:50.226Z,9.52
2018-05-31T17:32:23.224Z,9.48
2018-05-31T17:34:56.651Z,9.10
2018-05-31T17:37:29.864Z,10.00
2018-05-31T17:40:02.644Z,10.00
2018-05-31T17:42:35.073Z,9.98
2018-05-31T17:45:07.960Z,10.07
2018-05-31T17:47:40.695Z,9.45
2018-05-31T17:50:14.141Z,9.55
2018-05-31T17:52:46.673Z,10.07
2018-05-31T17:55:19.999Z,8.95
2018-05-31T17:57:52.511Z,9.10
2018-05-31T18:00:25.703Z,9.20
2018-05-31T18:03:00.096Z,9.60
2018-05-31T18:05:32.707Z,9.40
2018-05-31T18:08:06.081Z,8.70
2018-05-31T18:10:39.291Z,9.55
2018-05-31T18:13:12.066Z,8.95
2018-05-31T18:15:50.762Z,8.70
2018-05-31T18:18:23.665Z,8.35
2018-05-31T18:20:58.263Z,9.40
2018-05-31T18:23:30.710Z,9.57
2018-05-31T18:26:08.842Z,8.52
2018-05-31T18:28:42.131Z,10.30
2018-05-31T18:31:14.861Z,9.40
2018-05-31T18:33:48.097Z,9.55
2018-05-31T18:36:21.720Z,9.18
2018-05-31T18:38:54.791Z,8.98
2018-05-31T18:41:27.697Z,8.70
2018-05-31T18:44:00.877Z,8.93
2018-05-31T18:46:33.501Z,8.23
2018-05-31T18:49:06.258Z,8.50
2018-05-31T18:51:38.737Z,8.93
2018-05-31T18:54:12.299Z,8.88
2018-05-31T18:56:45.527Z,8.30
2018-05-31T18:59:18.231Z,8.68
2018-05-31T19:01:50.981Z,8.85
2018-05-31T19:04:23.597Z,8.82
2018-05-31T19:06:56.661Z,8.70
2018-05-31T19:09:36.211Z,8.65
2018-05-31T19:12:10.123Z,9.30
2018-05-31T19:14:43.225Z,9.27
2018-05-31T19:17:15.785Z,9.45
2018-05-31T19:19:54.473Z,10.48
2018-05-31T19:22:28.256Z,11.40
2018-05-31T19:25:07.021Z,10.63
2018-05-31T19:27:39.996Z,11.20
2018-05-31T19:30:19.228Z,10.48
2018-05-31T19:32:53.655Z,10.52
2018-05-31T19:35:33.972Z,11.15
2018-05-31T19:38:06.602Z,11.50
2018-05-31T19:40:39.469Z,10.43
2018-05-31T19:43:17.905Z,12.30
2018-05-31T19:45:51.842Z,12.25
2018-05-31T19:48:25.302Z,12.25
2018-05-31T19:50:58.580Z,11.95
2018-05-31T19:53:37.160Z,12.98
2018-05-31T19:56:10.443Z,11.77
2018-05-31T19:58:49.318Z,12.37
2018-05-31T20:01:27.765Z,12.77
2018-05-31T20:04:00.251Z,12.30
2018-05-31T20:06:33.137Z,12.88
2018-05-31T20:09:05.777Z,13.85
2018-05-31T20:11:39.345Z,12.40
2018-05-31T20:14:11.836Z,12.02
2018-05-31T20:16:44.285Z,12.60
2018-05-31T20:19:17.036Z,12.75
2018-05-31T20:21:49.871Z,12.18
2018-05-31T20:24:22.413Z,12.23
2018-05-31T20:26:55.202Z,13.57
2018-05-31T20:29:27.843Z,13.32
2018-05-31T20:32:00.571Z,12.98
2018-05-31T20:34:33.202Z,12.45
2018-05-31T20:37:06.824Z,12.93
2018-05-31T20:39:39.280Z,12.57
2018-05-31T20:42:12.759Z,13.15
2018-05-31T20:44:45.551Z,13.02
2018-05-31T20:47:18.287Z,12.63
2018-05-31T20:49:50.937Z,12.57
2018-05-31T20:52:23.709Z,13.40
2018-05-31T20:54:56.524Z,12.30
2018-05-31T20:57:29.859Z,12.90
2018-05-31T21:00:02.755Z,13.75
2018-05-31T21:02:35.580Z,12.10
2018-05-31T21:05:08.416Z,12.63
2018-05-31T21:07:41.058Z,12.40
2018-05-31T21:10:13.922Z,13.30
2018-05-31T21:12:47.596Z,12.98
2018-05-31T21:15:20.546Z,12.48
2018-05-31T21:17:53.263Z,12.05
2018-05-31T21:20:25.961Z,13.35
2018-05-31T21:22:58.637Z,13.27
2018-05-31T21:25:31.216Z,13.43
2018-05-31T21:28:03.967Z,13.10
2018-05-31T21:30:36.649Z,12.75
2018-05-31T21:33:09.328Z,12.88
2018-05-31T21:35:42.252Z,12.20
2018-05-31T21:38:14.661Z,13.27
2018-05-31T21:40:47.472Z,13.48
2018-05-31T21:43:20.251Z,13.65
2018-05-31T21:45:52.852Z,12.95
2018-05-31T21:48:25.502Z,14.35
2018-05-31T21:50:58.472Z,13.45
2018-05-31T21:53:30.955Z,13.98
2018-05-31T21:56:04.298Z,14.35
2018-05-31T21:58:37.040Z,14.07
2018-05-31T22:01:10.355Z,14.73
2018-05-31T22:03:43.221Z,15.73
2018-05-31T22:06:15.866Z,14.45
2018-05-31T22:08:48.684Z,14.87
2018-05-31T22:11:21.198Z,15.35
2018-05-31T22:13:53.850Z,16.10
2018-05-31T22:16:26.416Z,14.77
2018-05-31T22:19:00.131Z,13.98
2018-05-31T22:21:33.531Z,14.95
2018-05-31T22:24:06.535Z,13.80
2018-05-31T22:26:39.074Z,14.30
2018-05-31T22:29:11.491Z,15.63
2018-05-31T22:31:44.227Z,15.65
2018-05-31T22:34:17.016Z,14.82
2018-05-31T22:36:49.562Z,15.45
2018-05-31T22:39:22.138Z,16.37
2018-05-31T22:41:54.823Z,16.00
2018-05-31T22:44:27.495Z,16.40
2018-05-31T22:47:00.030Z,15.85
2018-05-31T22:49:32.558Z,15.98
2018-05-31T22:52:05.096Z,15.68
2018-05-31T22:54:37.841Z,16.05
2018-05-31T22:57:10.718Z,15.52
2018-05-31T22:59:43.274Z,15.55
2018-05-31T23:02:15.911Z,15.30
2018-05-31T23:04:48.647Z,20.08
2018-05-31T23:07:21.511Z,20.45
2018-05-31T23:09:54.117Z,20.67
2018-05-31T23:12:31.992Z,19.27
2018-05-31T23:15:05.262Z,18.15
2018-05-31T23:17:37.805Z,18.30
2018-05-31T23:20:10.757Z,18.92
2018-05-31T23:22:44.064Z,20.05
2018-05-31T23:25:16.723Z,21.00
2018-05-31T23:27:50.248Z,19.87
2018-05-31T23:30:22.793Z,21.70
2018-05-31T23:32:55.277Z,19.75
2018-05-31T23:35:28.031Z,20.52
2018-05-31T23:38:01.385Z,21.58
2018-05-31T23:40:33.930Z,19.55
2018-05-31T23:43:06.600Z,21.62
2018-05-31T23:45:39.199Z,21.40
2018-05-31T23:48:11.906Z,21.25
2018-05-31T23:50:44.536Z,22.55
2018-05-31T23:53:17.747Z,21.83
2018-05-31T23:55:51.455Z,20.65
2018-05-31T23:58:24.020Z,20.58
